Time;durP1;ratioP1;P1;durP2;ratioP2;P2;SDS_P1;SDS_P2;PMS_P1;PMS_P2;Temp;Humidity;BMP_temperature;BMP_pressure;BME280_temperature;BME280_humidity;BME280_pressure;Samples;Min_cycle;Max_cycle;Signal;HPM_P1;HPM_P2
2022/09/05 00:01:46;;;;;;;5.25;3.78;;;17.10;78.20;;;16.27;100.00;96486.69;5000422;28;20075;-71
2022/09/05 00:04:59;;;;;;;4.80;3.33;;;17.10;78.40;;;16.25;100.00;96483.44;4986407;28;20099;-71
2022/09/05 00:07:39;;;;;;;4.65;3.53;;;17.10;78.60;;;16.22;100.00;96479.38;4998982;28;20034;-71
2022/09/05 00:10:32;;;;;;;4.22;3.72;;;17.10;78.70;;;16.23;100.00;96477.53;5001134;28;20038;-71
2022/09/05 00:12:58;;;;;;;5.25;3.80;;;17.20;78.90;;;16.23;100.00;96480.19;4984740;28;20066;-71
2022/09/05 00:15:36;;;;;;;5.22;3.70;;;17.20;78.70;;;16.25;100.00;96472.84;4996185;28;20030;-70
2022/09/05 00:18:34;;;;;;;5.90;3.78;;;17.20;78.40;;;16.25;100.00;96475.50;4996869;28;20121;-70
2022/09/05 00:21:28;;;;;;;7.93;4.40;;;17.20;78.30;;;16.24;100.00;96471.22;4998974;28;20077;-71
2022/09/05 00:24:19;;;;;;;4.28;3.67;;;17.20;78.30;;;16.21;100.00;96469.81;4979588;28;20502;-70
2022/09/05 00:27:21;;;;;;;4.50;3.78;;;17.10;78.50;;;16.17;100.00;96476.56;4977402;28;20474;-70
2022/09/05 00:30:06;;;;;;;6.40;3.72;;;17.10;78.50;;;16.13;100.00;96469.25;4980648;28;20118;-71
2022/09/05 00:33:04;;;;;;;3.53;3.20;;;17.10;78.70;;;16.11;100.00;96473.97;5001346;28;20041;-70
2022/09/05 00:35:51;;;;;;;5.32;3.78;;;17.10;78.50;;;16.10;100.00;96477.66;5004925;28;20061;-69
2022/09/05 00:38:22;;;;;;;5.28;4.10;;;17.10;78.40;;;16.06;100.00;96481.75;4992250;28;20510;-70
2022/09/05 00:40:52;;;;;;;5.18;3.95;;;17.00;78.30;;;16.03;100.00;96479.50;4978017;28;20031;-70
2022/09/05 00:43:33;;;;;;;5.05;4.32;;;17.00;78.40;;;16.01;100.00;96481.56;4996085;28;20045;-70
2022/09/05 00:46:11;;;;;;;5.43;4.05;;;17.00;78.40;;;15.98;100.00;96477.50;4978690;28;20033;-70
2022/09/05 00:49:19;;;;;;;5.63;4.07;;;16.90;78.60;;;15.92;100.00;96478.38;4993040;28;20041;-70
2022/09/05 00:52:03;;;;;;;4.57;3.80;;;16.80;78.60;;;15.88;100.00;96487.78;4997423;28;20358;-69
2022/09/05 00:55:11;;;;;;;5.65;4.00;;;16.70;78.90;;;15.81;100.00;96482.50;4985506;28;20081;-69
2022/09/05 00:58:04;;;;;;;6.25;4.15;;;16.70;79.10;;;15.76;100.00;96477.00;4988673;28;20054;-70
2022/09/05 01:00:33;;;;;;;8.48;4.65;;;16.60;79.50;;;15.72;100.00;96475.00;4990124;28;20054;-70
2022/09/05 01:03:15;;;;;;;7.28;4.60;;;16.60;79.80;;;15.69;100.00;96473.59;4991656;28;20034;-70
2022/09/05 01:06:12;;;;;;;5.35;4.38;;;16.60;80.00;;;15.69;100.00;96478.91;5011695;28;20034;-71
2022/09/05 01:09:27;;;;;;;6.35;4.63;;;16.60;80.00;;;15.67;100.00;96470.34;5002609;28;20049;-69
2022/09/05 01:12:29;;;;;;;5.80;4.22;;;16.60;80.10;;;15.65;100.00;96472.41;5000165;28;20040;-69
2022/09/05 01:15:39;;;;;;;10.32;9.23;;;16.60;80.10;;;15.65;100.00;96467.09;4969773;28;20072;-70
2022/09/05 01:18:48;;;;;;;7.47;6.55;;;16.60;79.90;;;15.64;100.00;96476.06;5003441;28;20579;-70
2022/09/05 01:21:41;;;;;;;8.07;4.85;;;16.60;80.10;;;15.62;100.00;96483.44;5003047;28;20048;-69
2022/09/05 01:24:32;;;;;;;6.53;4.55;;;16.60;80.00;;;15.62;100.00;96483.44;5017838;28;20046;-69
2022/09/05 01:27:34;;;;;;;7.25;4.80;;;16.60;80.00;;;15.63;100.00;96485.06;4990531;28;20100;-70
2022/09/05 01:30:12;;;;;;;6.03;4.82;;;16.60;79.90;;;15.63;100.00;96484.25;4983892;28;20042;-70
2022/09/05 01:33:02;;;;;;;6.63;4.78;;;16.60;79.80;;;15.62;100.00;96486.06;4984695;28;20060;-71
2022/09/05 01:35:42;;;;;;;6.45;4.50;;;16.60;79.50;;;15.59;100.00;96483.81;4984711;28;20045;-71
2022/09/05 01:38:14;;;;;;;8.35;4.60;;;16.60;79.40;;;15.59;100.00;96478.53;4995932;28;20053;-70
2022/09/05 01:41:05;;;;;;;6.38;4.13;;;16.60;79.50;;;15.58;100.00;96483.00;5001471;28;20038;-71
2022/09/05 01:44:35;;;;;;;6.45;4.53;;;16.60;79.50;;;15.54;100.00;96481.78;4984108;28;20080;-70
2022/09/05 01:47:26;;;;;;;5.70;4.45;;;16.50;79.70;;;15.52;100.00;96477.72;4973073;28;20090;-70
2022/09/05 01:50:00;;;;;;;7.13;4.93;;;16.50;79.90;;;15.49;100.00;96478.94;5001650;28;20060;-70
2022/09/05 01:53:04;;;;;;;8.00;4.97;;;16.50;79.80;;;15.49;100.00;96483.44;5006091;28;20033;-70
2022/09/05 01:55:48;;;;;;;6.72;4.85;;;16.50;79.90;;;15.48;100.00;96487.13;4993305;28;20042;-70
2022/09/05 01:58:30;;;;;;;7.10;5.20;;;16.50;80.00;;;15.45;100.00;96483.06;5005739;28;20033;-70
2022/09/05 02:01:23;;;;;;;7.22;5.65;;;16.50;80.10;;;15.46;100.00;96489.16;4987785;28;20121;-70
2022/09/05 02:04:12;;;;;;;7.07;5.40;;;16.50;80.30;;;15.47;100.00;96490.78;4985908;28;20040;-70
2022/09/05 02:06:59;;;;;;;7.72;5.90;;;16.50;80.50;;;15.47;100.00;96490.78;5004885;28;20552;-70
2022/09/05 02:10:15;;;;;;;10.55;6.05;;;16.50;80.50;;;15.46;100.00;96489.16;4987238;28;20135;-69
2022/09/05 02:12:41;;;;;;;9.80;5.45;;;16.50;80.50;;;15.44;100.00;96488.56;4978832;28;20038;-70
2022/09/05 02:15:15;;;;;;;7.88;5.88;;;16.50;80.50;;;15.45;100.00;96495.50;4992390;28;20759;-70
2022/09/05 02:17:41;;;;;;;6.90;5.75;;;16.50;80.70;;;15.43;100.00;96490.41;4990823;28;20034;-71
2022/09/05 02:20:25;;;;;;;8.48;6.70;;;16.50;80.50;;;15.42;100.00;96487.97;4987568;28;20375;-70
2022/09/05 02:23:52;;;;;;;9.55;5.90;;;16.40;80.60;;;15.36;100.00;96484.28;4978721;28;20085;-70
2022/09/05 02:26:28;;;;;;;8.88;6.65;;;16.30;80.80;;;15.33;100.00;96495.31;4985801;28;20488;-70
2022/09/05 02:29:04;;;;;;;8.02;5.97;;;16.30;81.00;;;15.31;100.00;96492.88;4976973;28;20030;-70
2022/09/05 02:31:38;;;;;;;8.13;6.30;;;16.40;80.90;;;15.32;100.00;96488.38;5002804;28;20056;-70
2022/09/05 02:34:16;;;;;;;10.23;6.70;;;16.30;80.70;;;15.31;100.00;96486.75;5002484;28;20153;-70
2022/09/05 02:37:08;;;;;;;13.57;10.55;;;16.30;80.60;;;15.30;100.00;96493.09;4993109;28;20030;-71
2022/09/05 02:39:56;;;;;;;14.02;12.63;;;16.30;80.70;;;15.28;100.00;96487.19;4999732;28;20042;-70
2022/09/05 02:42:54;;;;;;;17.92;15.43;;;16.30;81.00;;;15.29;100.00;96479.03;4998464;28;20109;-71
2022/09/05 02:45:36;;;;;;;17.98;13.40;;;16.40;81.20;;;15.31;100.00;96486.75;5019724;28;20048;-71
2022/09/05 02:48:21;;;;;;;14.05;11.13;;;16.40;81.30;;;15.30;100.00;96483.28;4997603;28;20042;-70
2022/09/05 02:51:06;;;;;;;25.52;15.60;;;16.40;81.20;;;15.29;100.00;96472.91;4976989;28;20038;-71
2022/09/05 02:53:31;;;;;;;14.48;11.20;;;16.40;81.40;;;15.29;100.00;96478.19;4986961;28;20030;-70
2022/09/05 02:56:27;;;;;;;11.10;9.05;;;16.40;81.40;;;15.32;100.00;96477.78;4984011;28;20089;-70
2022/09/05 02:59:24;;;;;;;9.40;8.27;;;16.40;81.20;;;15.33;100.00;96479.41;4978543;28;20085;-70
2022/09/05 03:02:53;;;;;;;12.25;10.43;;;16.40;80.60;;;15.32;100.00;96483.91;4979897;28;20042;-70
2022/09/05 03:05:33;;;;;;;10.13;7.90;;;16.40;80.20;;;15.31;100.00;96486.75;4993863;28;20117;-71
2022/09/05 03:08:29;;;;;;;19.73;15.85;;;16.40;79.90;;;15.29;100.00;96496.75;4991559;28;20045;-70
2022/09/05 03:11:35;;;;;;;37.90;33.53;;;16.40;79.80;;;15.30;100.00;96485.13;4981184;28;20359;-70
2022/09/05 03:14:50;;;;;;;22.83;19.33;;;16.40;80.00;;;15.28;100.00;96480.03;4992460;28;20123;-71
2022/09/05 03:17:39;;;;;;;14.52;12.65;;;16.30;80.30;;;15.26;100.00;96486.56;4976878;28;20030;-70
2022/09/05 03:20:45;;;;;;;13.90;10.13;;;16.30;80.40;;;15.22;100.00;96488.84;4966138;28;20143;-71
2022/09/05 03:23:27;;;;;;;9.32;8.32;;;16.30;80.30;;;15.22;100.00;96498.63;4983089;28;20184;-70
2022/09/05 03:26:49;;;;;;;9.27;6.95;;;16.30;80.40;;;15.21;100.00;96489.84;4978789;28;20411;-71
2022/09/05 03:29:36;;;;;;;8.30;7.40;;;16.30;80.40;;;15.18;100.00;96500.88;4995241;28;20049;-70
2022/09/05 03:32:24;;;;;;;8.38;7.07;;;16.30;80.40;;;15.18;100.00;96487.63;4999854;28;20147;-71
2022/09/05 03:35:46;;;;;;;10.70;7.88;;;16.30;80.60;;;15.16;100.00;96489.69;4986894;28;20061;-70
2022/09/05 03:39:10;;;;;;;21.73;18.30;;;16.30;80.90;;;15.18;100.00;96492.94;4998054;28;20045;-70
2022/09/05 03:41:54;;;;;;;14.05;12.55;;;16.30;81.50;;;15.18;100.00;96492.13;4999436;28;20572;-70
2022/09/05 03:44:32;;;;;;;11.25;9.63;;;16.30;81.70;;;15.16;100.00;96489.69;5015963;28;20030;-70
2022/09/05 03:47:24;;;;;;;10.07;8.48;;;16.30;81.70;;;15.16;100.00;96489.69;5000936;28;20069;-70
2022/09/05 03:50:22;;;;;;;9.10;8.10;;;16.30;81.60;;;15.15;100.00;96488.03;5000307;28;20122;-70
2022/09/05 03:53:25;;;;;;;11.10;8.63;;;16.20;81.60;;;15.13;100.00;96486.59;4999876;28;20061;-70
2022/09/05 03:56:27;;;;;;;9.82;8.63;;;16.20;81.60;;;15.12;100.00;96493.75;5000079;28;20033;-70
2022/09/05 03:59:33;;;;;;;10.82;9.10;;;16.20;81.80;;;15.11;100.00;96491.28;4975138;28;20070;-70
2022/09/05 04:02:03;;;;;;;10.52;8.82;;;16.20;81.90;;;15.07;100.00;96490.09;5001014;28;20042;-68
2022/09/05 04:04:36;;;;;;;9.68;8.68;;;16.20;82.00;;;15.05;100.00;96487.66;4998495;28;20033;-69
2022/09/05 04:07:29;;;;;;;12.38;9.70;;;16.10;82.10;;;15.05;100.00;96492.13;5000552;28;20133;-69
2022/09/05 04:09:59;;;;;;;10.57;9.48;;;16.20;82.10;;;15.02;100.00;96482.78;4962218;28;20034;-69
2022/09/05 04:12:39;;;;;;;10.77;9.00;;;16.20;82.00;;;15.00;100.00;96475.03;4991868;28;20046;-70
2022/09/05 04:15:44;;;;;;;9.25;8.30;;;16.10;82.10;;;14.99;100.00;96483.19;4982189;28;20039;-69
2022/09/05 04:18:18;;;;;;;11.07;9.30;;;16.10;82.10;;;14.98;100.00;96476.25;4971950;28;20863;-69
2022/09/05 04:21:00;;;;;;;9.55;8.63;;;16.10;82.10;;;14.96;100.00;96481.78;4993360;28;20038;-71
2022/09/05 04:24:25;;;;;;;9.27;8.20;;;16.10;82.30;;;14.97;100.00;96494.00;4981586;28;20041;-70
2022/09/05 04:27:15;;;;;;;9.10;7.70;;;16.10;82.30;;;14.95;100.00;96484.63;4978157;28;20110;-71
2022/09/05 04:30:17;;;;;;;9.73;8.13;;;16.10;82.40;;;14.94;100.00;96481.16;4990197;28;20030;-70
2022/09/05 04:33:04;;;;;;;9.68;7.82;;;16.10;82.20;;;14.92;100.00;96487.66;5001031;28;20065;-70
2022/09/05 04:35:51;;;;;;;10.45;7.82;;;16.10;82.20;;;14.91;100.00;96492.16;4969942;28;20096;-70
2022/09/05 04:38:32;;;;;;;16.67;12.73;;;16.10;82.20;;;14.91;100.00;96491.34;5002832;28;20076;-70
2022/09/05 04:41:32;;;;;;;21.73;17.50;;;16.10;82.20;;;14.94;100.00;96490.94;4967237;28;20035;-70
2022/09/05 04:44:15;;;;;;;9.68;8.43;;;16.10;82.10;;;14.93;100.00;96499.88;4985685;28;20405;-69
2022/09/05 04:46:51;;;;;;;9.50;7.40;;;16.10;81.80;;;14.92;100.00;96507.00;5000904;28;20042;-63
2022/09/05 04:49:25;;;;;;;10.63;7.40;;;16.10;81.70;;;14.92;100.00;96503.56;4984650;28;20053;-66
2022/09/05 04:52:38;;;;;;;8.38;7.38;;;16.10;81.70;;;14.93;100.00;96502.53;5006243;28;20129;-65
2022/09/05 04:55:23;;;;;;;8.20;7.40;;;16.10;81.70;;;14.93;100.00;96507.81;5002593;28;20038;-70
2022/09/05 04:58:01;;;;;;;10.18;7.32;;;16.10;81.60;;;14.92;100.00;96514.97;5002119;28;20041;-71
2022/09/05 05:00:50;;;;;;;8.00;7.18;;;16.10;81.50;;;14.94;100.00;96509.50;5013941;28;20061;-71
2022/09/05 05:03:23;;;;;;;9.13;7.40;;;16.10;81.50;;;14.90;100.00;96522.31;5008517;28;20065;-71
2022/09/05 05:06:07;;;;;;;11.45;7.93;;;16.10;81.40;;;14.93;100.00;96523.72;4985600;28;20035;-70
2022/09/05 05:08:45;;;;;;;9.65;7.93;;;16.10;81.40;;;14.93;100.00;96526.38;4986894;28;20030;-70
2022/09/05 05:12:03;;;;;;;8.75;7.90;;;16.10;81.40;;;14.95;100.00;96524.38;4979759;28;20545;-70
2022/09/05 05:15:03;;;;;;;8.50;7.50;;;16.20;81.40;;;14.93;100.00;96531.66;4996627;28;20030;-72
2022/09/05 05:18:07;;;;;;;9.57;8.68;;;16.20;81.40;;;14.92;100.00;96536.16;5005693;28;20524;-71
2022/09/05 05:20:48;;;;;;;8.63;7.72;;;16.10;81.40;;;14.92;100.00;96541.44;4999612;28;20050;-70
2022/09/05 05:23:19;;;;;;;7.97;7.13;;;16.10;81.40;;;14.94;100.00;96549.22;4989002;28;20108;-70
2022/09/05 05:25:50;;;;;;;9.80;8.18;;;16.20;81.30;;;14.96;100.00;96537.41;4977762;28;20045;-69
2022/09/05 05:28:46;;;;;;;9.18;7.93;;;16.30;81.30;;;15.00;100.00;96538.59;5006358;28;20038;-69
2022/09/05 05:31:16;;;;;;;9.27;7.60;;;16.30;81.50;;;15.04;100.00;96540.84;4986761;28;20096;-70
2022/09/05 05:33:46;;;;;;;10.77;9.67;;;16.40;81.70;;;15.07;100.00;96543.06;4987978;28;20049;-70
2022/09/05 05:36:35;;;;;;;10.52;9.43;;;16.50;81.90;;;15.12;100.00;96546.72;5004016;28;20502;-69
2022/09/05 05:39:12;;;;;;;9.30;8.40;;;16.50;82.10;;;15.16;100.00;96542.69;4977872;28;20126;-70
2022/09/05 05:41:44;;;;;;;9.00;8.10;;;16.60;82.10;;;15.23;100.00;96538.16;5006308;28;20409;-70
2022/09/05 05:44:15;;;;;;;8.63;7.75;;;16.60;82.00;;;15.29;100.00;96545.28;5001820;28;20043;-69
2022/09/05 05:47:00;;;;;;;10.40;8.18;;;16.80;81.70;;;15.38;100.00;96540.56;4994336;28;20026;-70
2022/09/05 05:49:56;;;;;;;8.90;7.70;;;16.90;81.50;;;15.46;100.00;96542.19;4979568;28;20494;-69
2022/09/05 05:53:16;;;;;;;8.95;8.05;;;16.90;81.40;;;15.54;100.00;96544.59;4998105;28;20038;-69
2022/09/05 05:56:17;;;;;;;10.35;7.97;;;17.00;81.30;;;15.62;100.00;96552.38;5004126;28;20041;-71
2022/09/05 05:59:10;;;;;;;7.80;7.00;;;17.10;81.10;;;15.71;100.00;96556.41;5004327;28;20137;-68
2022/09/05 06:02:10;;;;;;;10.70;6.93;;;17.20;80.90;;;15.79;100.00;96550.84;5001945;28;20081;-65
2022/09/05 06:05:06;;;;;;;7.30;6.60;;;17.30;80.60;;;15.86;100.00;96564.94;5024220;28;20026;-65
2022/09/05 06:08:23;;;;;;;7.47;6.50;;;17.50;80.40;;;15.97;100.00;96554.66;5005843;28;20117;-66
2022/09/05 06:11:02;;;;;;;7.10;6.35;;;17.60;80.10;;;16.06;100.00;96561.34;4993810;28;20129;-67
2022/09/05 06:14:07;;;;;;;6.95;6.25;;;17.70;79.80;;;16.19;100.00;96566.59;4987029;28;20503;-65
2022/09/05 06:17:06;;;;;;;7.38;5.93;;;17.80;79.60;;;16.30;100.00;96570.44;4997824;28;20510;-64
2022/09/05 06:20:13;;;;;;;6.85;6.18;;;17.90;79.20;;;16.37;100.00;96569.34;4989295;28;20035;-68
2022/09/05 06:23:23;;;;;;;7.60;6.38;;;18.00;78.60;;;16.43;100.00;96568.50;4981309;28;20030;-67
2022/09/05 06:26:40;;;;;;;8.27;6.32;;;18.10;78.50;;;16.53;100.00;96566.19;5005511;28;20033;-68
2022/09/05 06:29:32;;;;;;;6.95;5.90;;;18.10;78.30;;;16.63;100.00;96571.03;5004550;28;20761;-67
2022/09/05 06:32:18;;;;;;;6.38;5.78;;;18.20;78.30;;;16.72;100.00;96568.94;5018544;28;20124;-67
2022/09/05 06:35:35;;;;;;;8.38;5.70;;;18.30;77.80;;;16.77;100.00;96571.78;4995909;28;20035;-69
2022/09/05 06:38:38;;;;;;;7.68;5.40;;;18.40;77.40;;;16.87;100.00;96572.09;4982555;28;20057;-65
2022/09/05 06:41:23;;;;;;;5.60;5.03;;;18.50;77.00;;;16.92;100.00;96564.28;5014915;28;20157;-65
2022/09/05 06:44:31;;;;;;;6.78;5.45;;;18.60;76.40;;;16.97;100.00;96575.06;4994281;28;20487;-66
2022/09/05 06:46:58;;;;;;;11.80;5.13;;;18.60;76.30;;;17.02;100.00;96564.63;5003597;28;20085;-65
2022/09/05 06:49:59;;;;;;;7.30;4.68;;;18.70;76.50;;;17.18;100.00;96562.41;4993496;28;20038;-70
2022/09/05 06:53:08;;;;;;;5.80;4.50;;;18.90;75.60;;;17.32;100.00;96559.44;4998095;28;20034;-70
2022/09/05 06:55:38;;;;;;;9.52;4.60;;;19.10;75.10;;;17.43;100.00;96556.06;5005061;28;20134;-70
2022/09/05 06:58:51;;;;;;;15.15;5.50;;;19.30;74.10;;;17.62;100.00;96558.69;5005638;28;20327;-69
2022/09/05 07:01:26;;;;;;;7.85;4.88;;;19.50;74.20;;;17.81;100.00;96563.00;5003602;28;20038;-70
2022/09/05 07:04:27;;;;;;;8.98;4.72;;;19.80;74.10;;;18.04;100.00;96560.47;4985794;28;20030;-69
2022/09/05 07:07:15;;;;;;;5.22;3.97;;;20.10;73.00;;;18.21;100.00;96554.53;5014444;28;20061;-69
2022/09/05 07:09:41;;;;;;;5.15;3.58;;;20.20;72.00;;;18.38;100.00;96562.72;5012083;28;20531;-70
2022/09/05 07:12:28;;;;;;;6.38;4.07;;;20.50;71.70;;;18.57;100.00;96559.75;5007352;28;20045;-70
2022/09/05 07:15:31;;;;;;;6.53;3.88;;;20.70;71.20;;;18.76;100.00;96565.84;5005762;28;20545;-70
2022/09/05 07:18:08;;;;;;;7.40;4.00;;;21.00;70.10;;;18.95;100.00;96567.38;4989718;28;20030;-71
2022/09/05 07:20:48;;;;;;;7.82;3.80;;;21.20;69.30;;;19.13;100.00;96565.66;5004598;28;20522;-70
2022/09/05 07:23:40;;;;;;;4.70;3.55;;;21.40;68.60;;;19.31;100.00;96573.56;4988058;28;20049;-71
2022/09/05 07:26:09;;;;;;;7.03;3.40;;;21.60;68.20;;;19.45;100.00;96569.59;5020771;28;20049;-69
2022/09/05 07:28:36;;;;;;;7.20;3.95;;;21.80;67.00;;;19.63;100.00;96567.88;4995451;28;20129;-70
2022/09/05 07:31:13;;;;;;;3.92;3.30;;;22.00;66.50;;;19.81;100.00;96560.53;4990121;28;20034;-70
2022/09/05 07:33:38;;;;;;;5.18;3.63;;;22.20;66.40;;;19.99;100.00;96567.56;4987213;28;20081;-69
2022/09/05 07:36:10;;;;;;;5.30;3.65;;;22.30;66.10;;;20.15;100.00;96574.03;4968196;28;20369;-69
2022/09/05 07:38:38;;;;;;;11.93;4.13;;;22.50;65.70;;;20.36;100.00;96570.66;5000634;28;20041;-69
2022/09/05 07:41:25;;;;;;;7.43;3.78;;;22.70;65.40;;;20.65;100.00;96568.03;4993941;28;20037;-71
2022/09/05 07:44:02;;;;;;;12.02;3.75;;;23.10;63.80;;;20.96;100.00;96572.00;4996890;28;20037;-71
2022/09/05 07:46:31;;;;;;;22.48;5.90;;;23.40;63.00;;;21.27;100.00;96568.78;4994164;28;20041;-70
2022/09/05 07:49:04;;;;;;;16.80;4.93;;;23.70;62.10;;;21.62;97.90;96570.34;5006238;28;20041;-71
2022/09/05 07:51:34;;;;;;;7.03;3.47;;;24.10;61.00;;;21.91;96.94;96574.47;5003723;28;20375;-71
2022/09/05 07:54:19;;;;;;;5.95;3.70;;;24.30;60.20;;;22.26;91.58;96574.13;4985814;28;20584;-70
2022/09/05 07:56:58;;;;;;;5.75;2.90;;;24.60;58.30;;;22.49;91.68;96573.03;4983088;28;20121;-71
2022/09/05 07:59:25;;;;;;;4.50;2.70;;;24.90;58.20;;;22.77;94.42;96580.00;4959833;28;20053;-72
2022/09/05 08:01:52;;;;;;;4.90;2.33;;;25.10;57.70;;;23.08;91.53;96575.72;4963639;28;20034;-73
2022/09/05 08:04:30;;;;;;;7.25;2.70;;;25.60;55.40;;;23.34;85.71;96581.31;4950256;28;20098;-70
2022/09/05 08:07:06;;;;;;;3.50;2.30;;;25.70;55.30;;;23.63;83.27;96582.59;4975213;28;20557;-70
2022/09/05 08:09:37;;;;;;;8.30;2.63;;;26.00;53.60;;;23.92;83.74;96582.19;4999373;28;20038;-69
2022/09/05 08:12:15;;;;;;;12.48;3.50;;;26.50;52.90;;;24.35;80.05;96573.81;5000278;28;20494;-72
2022/09/05 08:14:52;;;;;;;6.00;2.83;;;27.00;51.80;;;24.80;83.03;96569.59;4948804;28;20045;-71
2022/09/05 08:17:23;;;;;;;3.30;1.75;;;27.60;50.40;;;25.35;78.82;96565.31;5000181;28;20057;-71
2022/09/05 08:20:26;;;;;;;5.97;1.80;;;28.20;49.50;;;25.95;74.39;96558.97;5020944;28;20037;-70
2022/09/05 08:23:32;;;;;;;2.80;1.80;;;28.60;48.70;;;26.50;71.07;96565.22;4995976;28;20058;-71
2022/09/05 08:26:27;;;;;;;2.00;1.52;;;29.10;46.80;;;26.92;68.89;96554.94;5001554;28;20358;-72
2022/09/05 08:29:14;;;;;;;4.82;1.77;;;29.50;45.60;;;27.31;68.67;96558.44;5005823;28;20041;-69
2022/09/05 08:32:01;;;;;;;3.97;1.60;;;29.80;45.10;;;27.66;65.72;96553.81;5015128;28;20030;-70
2022/09/05 08:34:48;;;;;;;3.55;1.60;;;30.00;43.70;;;27.96;63.97;96558.06;4986308;28;20035;-72
2022/09/05 08:37:19;;;;;;;4.43;1.90;;;30.10;44.00;;;28.08;64.27;96561.16;5016421;28;20137;-64
2022/09/05 08:39:45;;;;;;;2.78;1.38;;;30.00;43.00;;;28.20;66.55;96558.03;4987146;28;20034;-71
2022/09/05 08:42:51;;;;;;;2.83;1.50;;;30.40;42.60;;;28.41;60.96;96551.28;4975545;28;20445;-71
2022/09/05 08:45:37;;;;;;;5.28;1.83;;;30.60;42.70;;;28.58;61.29;96548.06;5003198;28;20041;-71
2022/09/05 08:48:14;;;;;;;3.15;1.77;;;30.70;42.70;;;28.58;59.67;96548.06;4992982;28;20037;-73
2022/09/05 08:51:23;;;;;;;3.05;1.70;;;30.40;42.00;;;28.63;59.66;96545.28;5008753;28;20133;-70
2022/09/05 08:53:55;;;;;;;3.38;1.80;;;30.60;42.60;;;28.75;58.59;96547.56;4989150;28;20046;-71
2022/09/05 08:56:22;;;;;;;2.33;1.63;;;30.90;41.30;;;28.84;60.66;96548.50;4991569;28;20034;-71
2022/09/05 08:59:26;;;;;;;2.30;1.40;;;31.10;41.20;;;28.93;56.85;96544.03;5002060;28;20499;-69
2022/09/05 09:02:54;;;;;;;3.30;1.67;;;31.10;40.80;;;29.02;56.34;96547.69;5000804;28;20640;-71
2022/09/05 09:05:56;;;;;;;3.65;1.60;;;31.10;40.80;;;28.94;54.72;96537.50;4996459;28;20070;-66
2022/09/05 09:09:14;;;;;;;2.15;1.50;;;30.70;40.30;;;28.98;55.38;96529.63;4990899;28;20041;-65
2022/09/05 09:12:04;;;;;;;2.13;1.20;;;30.90;41.70;;;28.98;56.41;96535.84;4992743;28;20041;-69
2022/09/05 09:14:50;;;;;;;3.35;1.40;;;30.90;41.40;;;29.09;54.71;96533.75;4991478;28;20075;-69
2022/09/05 09:17:51;;;;;;;2.10;1.35;;;31.10;40.30;;;29.21;54.25;96523.28;4991845;28;20108;-71
2022/09/05 09:20:52;;;;;;;3.92;1.30;;;31.30;40.70;;;29.30;54.10;96528.78;5004905;28;20417;-65
2022/09/05 09:23:48;;;;;;;2.28;1.23;;;31.40;40.40;;;29.36;53.41;96522.97;4998001;28;20404;-65
2022/09/05 09:26:20;;;;;;;2.33;1.42;;;31.40;39.40;;;29.43;53.80;96525.31;4996438;28;20069;-66
2022/09/05 09:28:56;;;;;;;2.33;1.45;;;31.40;39.60;;;29.49;55.03;96518.72;4996563;28;20058;-66
2022/09/05 09:32:03;;;;;;;1.80;1.35;;;31.50;39.60;;;29.59;52.59;96515.81;4987032;28;20039;-66
2022/09/05 09:34:33;;;;;;;3.70;1.33;;;31.50;39.70;;;29.74;54.90;96512.81;5016237;28;20057;-67
2022/09/05 09:37:08;;;;;;;;;;;31.80;40.40;;;30.02;53.84;96519.03;5009591;28;20045;-66
2022/09/05 09:39:57;;;;;;;3.50;1.65;;;32.30;40.20;;;30.29;50.51;96510.06;5003392;28;19929;-66
2022/09/05 09:42:56;;;;;;;2.15;1.23;;;32.20;37.30;;;30.45;51.04;96508.63;5002120;28;20038;-72
2022/09/05 09:45:33;;;;;;;2.05;1.38;;;32.50;38.60;;;30.70;51.73;96518.13;5003745;28;20050;-70
2022/09/05 09:48:37;;;;;;;2.55;1.23;;;32.90;38.70;;;31.04;48.39;96514.84;5002323;28;20073;-72
2022/09/05 09:51:25;;;;;;;2.95;1.45;;;33.10;37.80;;;31.30;48.97;96512.31;5003022;28;20528;-70
2022/09/05 09:54:02;;;;;;;2.67;1.27;;;33.40;37.10;;;31.54;48.48;96506.50;5006149;28;20046;-70
2022/09/05 09:56:45;;;;;;;2.03;1.30;;;33.70;36.90;;;31.76;49.41;96507.59;5008333;28;20083;-69
2022/09/05 09:59:56;;;;;;;3.05;1.50;;;33.90;37.30;;;32.05;47.63;96510.53;5004113;28;20053;-71
2022/09/05 10:03:02;;;;;;;6.13;3.70;;;34.30;36.30;;;32.39;47.99;96509.03;5014448;28;20030;-71
2022/09/05 10:05:45;;;;;;;3.15;1.30;;;34.70;36.30;;;32.62;48.26;96507.78;4993609;28;20042;-67
2022/09/05 10:08:47;;;;;;;1.95;1.65;;;34.80;36.50;;;32.88;46.81;96499.63;5023285;28;20045;-72
2022/09/05 10:11:39;;;;;;;4.57;1.55;;;34.90;35.60;;;33.18;44.74;96503.25;5003964;28;20040;-71
2022/09/05 10:14:36;;;;;;;2.28;1.10;;;35.00;34.90;;;33.60;44.94;96504.25;5002057;28;20069;-71
2022/09/05 10:17:33;;;;;;;1.52;1.10;;;35.50;34.80;;;33.91;42.08;96495.00;4990003;28;20034;-72
2022/09/05 10:20:43;;;;;;;5.10;1.40;;;35.70;32.90;;;34.29;41.06;96492.19;4999753;28;20048;-72
2022/09/05 10:23:59;;;;;;;2.17;1.20;;;36.10;32.80;;;34.65;40.62;96492.44;5004330;28;20050;-71
2022/09/05 10:26:42;;;;;;;3.20;1.33;;;36.60;31.80;;;34.96;39.62;96488.47;4977228;28;20098;-72
2022/09/05 10:29:10;;;;;;;3.08;1.25;;;37.00;31.10;;;35.17;41.91;96489.22;4991647;28;20034;-70
2022/09/05 10:32:03;;;;;;;1.92;1.30;;;37.30;31.10;;;35.37;40.18;96498.53;4978122;28;20077;-71
2022/09/05 10:34:29;;;;;;;2.42;1.10;;;37.70;31.20;;;35.50;41.16;96491.13;4984118;28;20035;-71
2022/09/05 10:37:03;;;;;;;2.35;1.30;;;37.70;29.70;;;35.44;37.67;96482.34;4963109;28;20414;-65
2022/09/05 10:39:37;;;;;;;3.20;1.20;;;37.70;29.60;;;35.54;37.88;96481.94;5007488;28;20139;-66
2022/09/05 10:42:37;;;;;;;3.22;1.23;;;38.20;29.40;;;35.61;37.59;96478.63;5006227;28;20034;-66
2022/09/05 10:45:04;;;;;;;4.45;1.27;;;38.40;29.20;;;35.73;38.49;96477.81;4998096;28;20034;-65
2022/09/05 10:47:37;;;;;;;1.90;1.20;;;38.60;28.00;;;35.85;36.83;96467.69;4987599;28;20110;-66
2022/09/05 10:50:26;;;;;;;2.83;1.10;;;38.80;27.80;;;36.04;35.82;96471.78;5002903;28;20034;-64
2022/09/05 10:53:21;;;;;;;2.25;1.20;;;39.00;28.50;;;36.17;35.41;96459.66;5001420;28;20026;-64
2022/09/05 10:56:09;;;;;;;1.88;1.15;;;39.30;27.60;;;36.36;36.53;96462.63;4987870;28;20026;-66
2022/09/05 10:59:00;;;;;;;1.98;1.20;;;39.50;27.90;;;36.47;36.15;96455.53;4993344;28;20038;-66
2022/09/05 11:01:38;;;;;;;1.70;1.05;;;39.70;28.30;;;36.65;37.06;96457.94;4991649;28;20038;-67
2022/09/05 11:04:34;;;;;;;1.85;1.20;;;40.10;28.50;;;36.74;35.36;96450.38;4984476;28;20699;-70
2022/09/05 11:07:16;;;;;;;1.38;1.00;;;40.20;27.00;;;36.93;34.32;96456.03;5017530;28;20272;-72
2022/09/05 11:10:02;;;;;;;2.05;1.10;;;40.40;26.90;;;37.04;35.01;96453.56;4982603;28;20040;-71
2022/09/05 11:13:03;;;;;;;1.55;0.93;;;40.50;26.70;;;37.34;33.85;96446.53;5003686;28;20034;-70
2022/09/05 11:16:01;;;;;;;1.40;1.00;;;41.00;26.20;;;37.48;34.20;96437.88;5001385;28;20034;-67
2022/09/05 11:18:37;;;;;;;2.45;1.00;;;41.50;25.80;;;37.63;33.61;96434.34;5014317;28;20041;-64
2022/09/05 11:21:41;;;;;;;1.75;1.10;;;41.90;25.00;;;37.69;33.14;96443.88;5001477;28;20042;-63
2022/09/05 11:24:50;;;;;;;1.27;1.00;;;42.20;24.50;;;37.86;33.12;96444.69;5006291;28;20049;-64
2022/09/05 11:27:46;;;;;;;1.83;1.00;;;42.60;24.60;;;37.76;32.37;96442.50;5005705;28;20421;-64
2022/09/05 11:30:32;;;;;;;1.80;1.13;;;42.70;23.60;;;37.96;32.46;96438.66;4989112;28;20501;-64
2022/09/05 11:33:16;;;;;;;2.78;1.17;;;43.30;23.50;;;38.09;31.75;96442.88;4990146;28;20041;-63
2022/09/05 11:36:14;;;;;;;3.08;1.10;;;43.50;22.70;;;38.29;31.65;96425.28;5001615;28;20041;-66
2022/09/05 11:39:14;;;;;;;1.45;0.88;;;43.80;22.80;;;38.42;31.62;96427.88;4988086;28;20504;-72
2022/09/05 11:42:08;;;;;;;1.67;1.10;;;44.00;22.50;;;38.67;31.78;96423.72;4964619;28;20031;-73
2022/09/05 11:44:52;;;;;;;3.00;1.05;;;44.30;22.90;;;38.93;31.57;96420.31;4981862;28;20466;-73